Terminal Aerodrome Forecast
Issued by NWS Memphis, TN

Home | Current Version | Previous Version | Text Only | Print | Product List | Glossary On
Versions: 1 2 3 4 5 6 7 8 9 10 11 12
000
FTUS44 KMEG 312320
TAFJBR
TAF
KJBR 312320Z 0100/0124 13006KT P6SM SCT250
     FM010100 VRB02KT P6SM SCT250
      TEMPO 0108/0112 6SM BR
     FM011500 17007KT P6SM FEW035 SCT250=

USA.gov is the U.S. government's official web portal to all federal, state and local government web resources and services.